^^
Station Historical Data
Daily Summary for March 10, 2012 Units:  Metric    English   Both
« Previous Day
Next Day »
Daily Weekly Monthly Yearly Custom
  High: Low: Average:
Temperature: 17.9 °C 4.1 °C 11.7 °C
Dew Point: 2.9 °C -2.7 °C 0 °C
Humidity: 62% 34% 45%
Wind Speed: 31.5km/h 1.6km/h 11.3km/h
Wind Gust: 31.5km/h - -
Wind- - South
Pressure: 1027 hPa 1017.8 hPa -
Precipitation: 0 mm    
Historical Graphs
 
 
Tabular Data for March 10, 2012
Time Temperature Dew Point Pressure Wind Wind Speed Wind Gust Humidity Rainfall Rate (Hourly)
00:01 8.5 °C -1.1 °C 1027 hPa South 11.1 km/h 11.1 km/h 51% 0 mm
00:06 8.5 °C -1.1 °C 1026.6 hPa South 11.1 km/h 11.1 km/h 51% 0 mm
00:11 8.6 °C -1.3 °C 1026.6 hPa South 11.1 km/h 11.1 km/h 50% 0 mm
00:16 8.6 °C -1.2 °C 1026.3 hPa South 11.1 km/h 11.1 km/h 50% 0 mm
00:21 8.7 °C -1.4 °C 1026.3 hPa South 9.3 km/h 9.3 km/h 49% 0 mm
00:26 8.8 °C -1.4 °C 1026.3 hPa South 18.5 km/h 18.5 km/h 49% 0 mm
00:31 8.8 °C -1.6 °C 1026.3 hPa South 9.3 km/h 9.3 km/h 48% 0 mm
00:36 8.9 °C -1.6 °C 1026.3 hPa South 6.4 km/h 6.4 km/h 48% 0 mm
00:41 8.8 °C -1.6 °C 1026.3 hPa South 11.1 km/h 11.1 km/h 48% 0 mm
00:46 8.8 °C -1.7 °C 1026.3 hPa South 18.5 km/h 18.5 km/h 48% 0 mm
00:51 8.7 °C -1.4 °C 1026.3 hPa South 5.6 km/h 6 km/h 49% 0 mm
00:56 8.5 °C -1.6 °C 1026.3 hPa South 14.5 km/h 14.5 km/h 49% 0 mm
01:01 8.4 °C -1.7 °C 1026.3 hPa South 11.1 km/h 11.1 km/h 49% 0 mm
01:06 8.3 °C -1.5 °C 1026.3 hPa South 7.4 km/h 7.4 km/h 50% 0 mm
01:11 8.3 °C -1.6 °C 1026 hPa South 5.6 km/h 6 km/h 50% 0 mm
01:16 8.2 °C -1.6 °C 1026 hPa South 14.8 km/h 14.8 km/h 50% 0 mm
01:21 8.1 °C -1.8 °C 1026 hPa South 9.3 km/h 9.3 km/h 50% 0 mm
01:26 7.8 °C -1.7 °C 1026 hPa South 7.4 km/h 7.4 km/h 51% 0 mm
01:32 7.7 °C -1.8 °C 1026 hPa South 8 km/h 8 km/h 51% 0 mm
01:37 7.6 °C -1.6 °C 1026 hPa South 5.6 km/h 5.6 km/h 52% 0 mm
01:42 7.5 °C -1.7 °C 1026 hPa South 5.6 km/h 5.6 km/h 52% 0 mm
01:47 7.3 °C -1.6 °C 1026 hPa South 7.4 km/h 7.4 km/h 53% 0 mm
01:52 7.2 °C -1.7 °C 1026 hPa South 5.6 km/h 5.6 km/h 53% 0 mm
01:57 7 °C -1.7 °C 1026 hPa South 7.4 km/h 7.4 km/h 54% 0 mm
02:02 6.8 °C -1.6 °C 1026 hPa South 9.3 km/h 9.3 km/h 55% 0 mm
02:07 6.8 °C -1.7 °C 1026 hPa South 9.3 km/h 9.3 km/h 55% 0 mm
02:12 6.7 °C -1.7 °C 1026 hPa South 5.6 km/h 5.6 km/h 55% 0 mm
02:17 6.5 °C -1.7 °C 1026 hPa South 3.7 km/h 3.7 km/h 56% 0 mm
02:22 6.4 °C -1.8 °C 1026 hPa South 3.7 km/h 3.7 km/h 56% 0 mm
02:27 6.3 °C -1.8 °C 1025.6 hPa South 5.6 km/h 5.6 km/h 56% 0 mm
02:32 6.3 °C -1.8 °C 1025.6 hPa South 5.6 km/h 5.6 km/h 56% 0 mm
02:37 6.4 °C -1.8 °C 1025.6 hPa South 9.3 km/h 9.3 km/h 56% 0 mm
02:42 6.4 °C -1.9 °C 1025.6 hPa South 5.6 km/h 5.6 km/h 55% 0 mm
02:47 6.5 °C -1.9 °C 1025.3 hPa South 5.6 km/h 5.6 km/h 55% 0 mm
02:52 6.5 °C -2.2 °C 1025.3 hPa South 5.6 km/h 5.6 km/h 54% 0 mm
02:57 6.4 °C -2.2 °C 1025.3 hPa South 3.7 km/h 3.7 km/h 54% 0 mm
03:02 6.5 °C -2.2 °C 1025.3 hPa South 5.6 km/h 5.6 km/h 54% 0 mm
03:07 6.6 °C -2.1 °C 1024.9 hPa South 5.6 km/h 5.6 km/h 54% 0 mm
03:12 6.6 °C -2.1 °C 1024.9 hPa South 5.6 km/h 5.6 km/h 54% 0 mm
03:17 6.6 °C -2.1 °C 1024.9 hPa South 5.6 km/h 5.6 km/h 54% 0 mm
03:22 6.6 °C -2.1 °C 1024.9 hPa South 1.9 km/h 1.9 km/h 54% 0 mm
03:27 6.6 °C -2.3 °C 1024.9 hPa South 1.9 km/h 1.9 km/h 53% 0 mm
03:32 6.5 °C -2.2 °C 1024.9 hPa Calm     54% 0 mm
03:37 6.4 °C -2.2 °C 1024.6 hPa Calm   1.3 km/h 54% 0 mm
03:42 6.5 °C -2.2 °C 1024.6 hPa South 5.6 km/h 5.6 km/h 54% 0 mm
03:47 6.6 °C -2.1 °C 1024.6 hPa South 5.6 km/h 5.6 km/h 54% 0 mm
03:52 6.6 °C -2.3 °C 1024.6 hPa South 3.7 km/h 3.7 km/h 53% 0 mm
03:57 6.7 °C -2.2 °C 1024.6 hPa South 3.7 km/h 3.7 km/h 53% 0 mm
04:02 6.6 °C -2.3 °C 1024.6 hPa South 3.7 km/h   53% 0 mm
04:07 6.6 °C -2.3 °C 1024.6 hPa South 4.8 km/h 4.8 km/h 53% 0 mm
04:12 6.6 °C -2.3 °C 1024.6 hPa South 1.9 km/h   53% 0 mm
04:17 6.4 °C -2.4 °C 1024.6 hPa South 1.9 km/h 1.9 km/h 53% 0 mm
04:22 6.3 °C -2.3 °C 1024.6 hPa South 5.6 km/h 5.6 km/h 54% 0 mm
04:27 6.2 °C -2.4 °C 1024.6 hPa South 3.7 km/h 3.7 km/h 54% 0 mm
04:32 6.1 °C -2.6 °C 1024.9 hPa Calm   0.3 km/h 54% 0 mm
04:37 5.9 °C -2.4 °C 1024.9 hPa South 3.7 km/h   55% 0 mm
04:42 5.8 °C -2.3 °C 1024.9 hPa South 1.9 km/h   56% 0 mm
04:47 5.7 °C -2.4 °C 1024.9 hPa South 1.9 km/h   56% 0 mm
04:52 5.6 °C -2.6 °C 1024.9 hPa South 1.6 km/h 1.6 km/h 56% 0 mm
04:57 5.4 °C -2.4 °C 1024.9 hPa South 1.9 km/h   57% 0 mm
05:02 5.3 °C -2.6 °C 1024.9 hPa Calm     57% 0 mm
05:07 5.2 °C -2.7 °C 1024.9 hPa Calm     57% 0 mm
05:12 5.2 °C -2.7 °C 1024.9 hPa Calm     57% 0 mm
05:17 5.2 °C -2.6 °C 1024.9 hPa South 5.6 km/h 5.6 km/h 57% 0 mm
05:22 5.3 °C -2.5 °C 1024.9 hPa South 1.9 km/h 1.9 km/h 57% 0 mm
05:27 5.3 °C -2.6 °C 1024.9 hPa South 3.7 km/h 3.7 km/h 57% 0 mm
05:32 5.2 °C -2.4 °C 1024.9 hPa Calm     58% 0 mm
05:37 5.2 °C -2.4 °C 1024.9 hPa South 5.6 km/h 5.6 km/h 58% 0 mm
05:38 5.2 °C -2.4 °C 1024.9 hPa South 5.6 km/h 5.6 km/h 58% 0 mm
05:43 5.2 °C -2.6 °C 1024.9 hPa South 9.3 km/h 9.3 km/h 57% 0 mm
05:48 5.3 °C -2.3 °C 1025.3 hPa South 5.6 km/h 5.6 km/h 58% 0 mm
05:53 5.2 °C -2.4 °C 1024.9 hPa South 1.9 km/h 1.9 km/h 58% 0 mm
05:58 5.2 °C -2.4 °C 1025.3 hPa South 5.6 km/h 5.6 km/h 58% 0 mm
06:03 5.1 °C -2.6 °C 1025.3 hPa South 5.6 km/h 5.6 km/h 58% 0 mm
06:08 5 °C -2.6 °C 1025.3 hPa South 3.7 km/h 3.7 km/h 58% 0 mm
06:13 4.9 °C -2.4 °C 1025.3 hPa South 3.7 km/h 3.7 km/h 59% 0 mm
06:18 4.9 °C -2.4 °C 1025.3 hPa South 5.6 km/h 5.6 km/h 59% 0 mm
06:23 4.8 °C -2.6 °C 1025.3 hPa South 3.7 km/h 3.7 km/h 59% 0 mm
06:28 4.6 °C -2.5 °C 1025.3 hPa South 3.7 km/h 3.7 km/h 60% 0 mm
06:33 4.5 °C -2.6 °C 1025.3 hPa South 5.6 km/h 5.6 km/h 60% 0 mm
06:38 4.4 °C -2.5 °C 1025.3 hPa South 1.9 km/h 1.9 km/h 61% 0 mm
06:43 4.3 °C -2.6 °C 1025.3 hPa South 3.7 km/h 3.7 km/h 61% 0 mm
06:48 4.2 °C -2.7 °C 1025.3 hPa South 1.9 km/h 1.9 km/h 61% 0 mm
06:53 4.1 °C -2.5 °C 1025.3 hPa South 1.9 km/h   62% 0 mm
06:58 4.1 °C -2.5 °C 1025.3 hPa South 1.9 km/h 1.9 km/h 62% 0 mm
07:03 4.2 °C -2.5 °C 1025.6 hPa South 3.7 km/h 3.7 km/h 62% 0 mm
07:08 4.3 °C -2.4 °C 1025.6 hPa South 5.6 km/h 5.6 km/h 62% 0 mm
07:13 4.5 °C -2.4 °C 1025.3 hPa South 3.7 km/h 3.7 km/h 61% 0 mm
07:18 4.6 °C -2.3 °C 1025.6 hPa South 3.7 km/h 3.7 km/h 61% 0 mm
07:23 4.8 °C -2.3 °C 1025.3 hPa South 7.4 km/h 7.4 km/h 60% 0 mm
07:28 5.2 °C -2.2 °C 1025.3 hPa South 9.3 km/h 9.3 km/h 59% 0 mm
07:33 5.5 °C -2.3 °C 1025.6 hPa South 9.3 km/h 9.3 km/h 57% 0 mm
07:38 5.7 °C -2.2 °C 1025.3 hPa South 11.1 km/h 11.1 km/h 57% 0 mm
07:43 5.9 °C -2.2 °C 1025.3 hPa South 16.7 km/h 16.7 km/h 56% 0 mm
07:48 6.2 °C -1.9 °C 1025.3 hPa South 8 km/h 8 km/h 56% 0 mm
07:53 6.5 °C -1.9 °C 1025.6 hPa South 16.7 km/h 16.7 km/h 55% 0 mm
07:58 6.9 °C -1.8 °C 1025.6 hPa South 5.6 km/h 5.6 km/h 54% 0 mm
08:03 7.3 °C -1.7 °C 1025.6 hPa South 7.4 km/h 7.4 km/h 53% 0 mm
08:08 7.7 °C -1.8 °C 1025.6 hPa South 14.8 km/h 14.8 km/h 51% 0 mm
08:13 8 °C -1.8 °C 1025.6 hPa South 11.1 km/h 11.1 km/h 50% 0 mm
08:18 8.3 °C -1.8 °C 1026 hPa South 16.7 km/h 16.7 km/h 49% 0 mm
08:23 8.5 °C -1.9 °C 1026 hPa South 18.5 km/h 18.5 km/h 48% 0 mm
08:28 8.7 °C -1.7 °C 1025.6 hPa South 16.7 km/h 16.7 km/h 48% 0 mm
08:33 8.8 °C -1.6 °C 1025.6 hPa South 18.5 km/h 18.5 km/h 48% 0 mm
08:38 9.2 °C -1.6 °C 1025.6 hPa South 11.1 km/h 11.1 km/h 47% 0 mm
08:43 9.5 °C -1.3 °C 1025.6 hPa South 16.7 km/h 16.7 km/h 47% 0 mm
08:48 9.8 °C -0.9 °C 1025.6 hPa South 9.3 km/h 9.3 km/h 47% 0 mm
08:53 10.2 °C -1.3 °C 1025.6 hPa SSW 14.8 km/h 14.8 km/h 45% 0 mm
08:58 10.4 °C -0.7 °C 1025.6 hPa SSW 7.4 km/h 7.4 km/h 46% 0 mm
09:03 10.5 °C -0.7 °C 1025.6 hPa South 22.2 km/h 22.2 km/h 46% 0 mm
09:08 10.8 °C -1 °C 1025.6 hPa South 18.5 km/h 18.5 km/h 44% 0 mm
09:13 10.8 °C -0.7 °C 1025.6 hPa South 18.5 km/h 18.5 km/h 45% 0 mm
09:18 11.2 °C -0.7 °C 1025.6 hPa South 16.7 km/h 16.7 km/h 44% 0 mm
09:23 11.6 °C 0 °C 1025.3 hPa South 16.7 km/h 16.7 km/h 45% 0 mm
09:28 11.9 °C 0 °C 1025.3 hPa South 18.5 km/h 18.5 km/h 44% 0 mm
09:33 11.9 °C 0.3 °C 1025.3 hPa SSW 16.7 km/h 16.7 km/h 45% 0 mm
09:38 12.1 °C 0.2 °C 1025.3 hPa SSW 11.1 km/h 11.1 km/h 44% 0 mm
09:43 12.2 °C 0.3 °C 1025.3 hPa South 18.5 km/h 18.5 km/h 44% 0 mm
09:48 12.5 °C 0.6 °C 1025.3 hPa SSW 16.7 km/h 16.7 km/h 44% 0 mm
09:53 12.6 °C 1 °C 1025.3 hPa South 11.1 km/h 11.1 km/h 45% 0 mm
09:58 12.7 °C 0.8 °C 1025.3 hPa South 11.1 km/h 11.1 km/h 44% 0 mm
10:03 12.7 °C 0.8 °C 1025.3 hPa South 14.8 km/h 14.8 km/h 44% 0 mm
10:08 13.2 °C 0.5 °C 1025.3 hPa South 20.4 km/h 20.4 km/h 42% 0 mm
10:13 13.4 °C 1.1 °C 1025.3 hPa SSW 14.8 km/h 14.8 km/h 43% 0 mm
10:18 13.7 °C 1 °C 1025.3 hPa South 22.2 km/h 22.2 km/h 42% 0 mm
10:23 13.6 °C 0.6 °C 1024.9 hPa South 22.2 km/h 22.2 km/h 41% 0 mm
10:28 13.8 °C 0.8 °C 1024.9 hPa WSW 25.9 km/h 25.9 km/h 41% 0 mm
10:33 13.9 °C 0.6 °C 1024.9 hPa South 24.1 km/h 24.1 km/h 40% 0 mm
10:38 14.1 °C 0.7 °C 1024.9 hPa SW 20.4 km/h 20.4 km/h 40% 0 mm
10:43 14.1 °C 0.7 °C 1024.9 hPa South 22.2 km/h 22.2 km/h 40% 0 mm
10:48 14.2 °C 0.8 °C 1024.9 hPa South 22.2 km/h 22.2 km/h 40% 0 mm
10:53 14.3 °C 1.2 °C 1024.9 hPa South 20.4 km/h 20.4 km/h 41% 0 mm
10:58 14.3 °C 1.2 °C 1024.6 hPa South 14.8 km/h 14.8 km/h 41% 0 mm
11:03 14.5 °C 1.4 °C 1024.9 hPa SW 16.7 km/h 16.7 km/h 41% 0 mm
11:08 15 °C 1.5 °C 1024.6 hPa SSW 18.5 km/h 18.5 km/h 40% 0 mm
11:13 15 °C 1.5 °C 1024.6 hPa SSW 18.5 km/h 18.5 km/h 40% 0 mm
11:18 14.7 °C 1.2 °C 1024.6 hPa South 20.4 km/h 20.4 km/h 40% 0 mm
11:23 15 °C 1.8 °C 1024.6 hPa SSW 11.1 km/h 11.1 km/h 41% 0 mm
11:28 15 °C 1.8 °C 1024.6 hPa SSW 18.5 km/h 18.5 km/h 41% 0 mm
11:33 15.3 °C 2.4 °C 1024.3 hPa South 17.7 km/h 17.7 km/h 42% 0 mm
11:39 15.2 °C 2 °C 1024.3 hPa SW 18.5 km/h 18.5 km/h 41% 0 mm
11:44 15.2 °C 1.7 °C 1024.3 hPa SE 27.8 km/h 27.8 km/h 40% 0 mm
11:49 15.2 °C 1.3 °C 1024.3 hPa South 18.5 km/h 18.5 km/h 39% 0 mm
11:54 15.3 °C 1.4 °C 1023.9 hPa SSW 18.5 km/h 18.5 km/h 39% 0 mm
11:55 15.4 °C 1.9 °C 1023.9 hPa South 11.1 km/h 11.1 km/h 40% 0 mm
12:00 15.9 °C 2 °C 1023.9 hPa SW 13 km/h 13 km/h 39% 0 mm
12:05 16.4 °C 2.4 °C 1023.9 hPa WSW 7.4 km/h 7.4 km/h 39% 0 mm
12:10 16.6 °C 2.2 °C 1023.6 hPa SSW 20.4 km/h 20.4 km/h 38% 0 mm
12:15 16.3 °C 1.9 °C 1023.6 hPa SSW 22.2 km/h 22.2 km/h 38% 0 mm
12:20 16.1 °C 2.1 °C 1023.6 hPa SSW 16.7 km/h 16.7 km/h 39% 0 mm
12:25 15.9 °C 1.9 °C 1023.2 hPa South 20.4 km/h 20.4 km/h 39% 0 mm
12:30 16.1 °C 2.1 °C 1023.2 hPa South 25.9 km/h 25.9 km/h 39% 0 mm
12:35 16.3 °C 2.3 °C 1023.2 hPa South 18.5 km/h 18.5 km/h 39% 0 mm
12:40 16.2 °C 1.9 °C 1022.9 hPa South 22.2 km/h 22.2 km/h 38% 0 mm
12:42 16.2 °C 1.8 °C 1022.9 hPa South 29.6 km/h 29.6 km/h 38% 0 mm
12:47 16.4 °C 2 °C 1022.9 hPa SSW 14.8 km/h 14.8 km/h 38% 0 mm
12:52 16.3 °C 1.9 °C 1022.6 hPa SW 24.1 km/h 24.1 km/h 38% 0 mm
12:57 16.6 °C 1.8 °C 1022.6 hPa SW 18.5 km/h 18.5 km/h 37% 0 mm
13:02 16.8 °C 2.4 °C 1022.6 hPa SSW 9.3 km/h 9.3 km/h 38% 0 mm
13:07 16.8 °C 2.1 °C 1022.6 hPa South 20.4 km/h 20.4 km/h 37% 0 mm
13:12 16.7 °C 1.9 °C 1022.2 hPa South 20.4 km/h 20.4 km/h 37% 0 mm
13:17 16.7 °C 1.5 °C 1022.2 hPa SSW 24.1 km/h 24.1 km/h 36% 0 mm
13:22 16.9 °C 1.8 °C 1021.9 hPa SSW 11.3 km/h 11.3 km/h 36% 0 mm
13:28 16.8 °C 2.1 °C 1021.9 hPa South 31.5 km/h 31.5 km/h 37% 0 mm
13:34 16.5 °C 2.5 °C 1021.9 hPa South 18.5 km/h 18.5 km/h 39% 0 mm
13:39 16.8 °C 1.3 °C 1021.6 hPa SSW 29.6 km/h 29.6 km/h 35% 0 mm
13:44 16.8 °C 1.7 °C 1021.6 hPa South 14.8 km/h 14.8 km/h 36% 0 mm
13:49 16.7 °C 1.5 °C 1021.6 hPa SSE 18.5 km/h 18.5 km/h 36% 0 mm
13:55 16.8 °C 1.6 °C 1021.2 hPa South 13 km/h 13 km/h 36% 0 mm
14:00 17.1 °C 1.4 °C 1021.2 hPa South 18.5 km/h 18.5 km/h 35% 0 mm
14:05 16.8 °C 1.2 °C 1021.2 hPa SSW 18.5 km/h 18.5 km/h 35% 0 mm
14:10 17 °C 1.4 °C 1020.9 hPa SW 18.5 km/h 18.5 km/h 35% 0 mm
14:15 17.2 °C 1.9 °C 1020.9 hPa SSW 11.1 km/h 11.1 km/h 36% 0 mm
14:21 17.3 °C 1.7 °C 1020.9 hPa SSW 18.5 km/h 18.5 km/h 35% 0 mm
14:26 17.3 °C 1.7 °C 1020.5 hPa South 16.7 km/h 16.7 km/h 35% 0 mm
14:31 17.5 °C 1.8 °C 1020.5 hPa SSW 16.7 km/h 16.7 km/h 35% 0 mm
14:36 17.7 °C 2 °C 1020.2 hPa SSW 16.7 km/h 16.7 km/h 35% 0 mm
14:41 17.6 °C 1.9 °C 1020.2 hPa SSW 11.1 km/h 11.1 km/h 35% 0 mm
14:46 17.5 °C 2.2 °C 1020.2 hPa SW 18.5 km/h 18.5 km/h 36% 0 mm
14:51 17.9 °C 2.6 °C 1020.2 hPa South 11.1 km/h 11.1 km/h 36% 0 mm
14:56 17.5 °C 1.8 °C 1020.2 hPa South 20.4 km/h 20.4 km/h 35% 0 mm
15:01 17.2 °C 2.4 °C 1020.2 hPa South 11.1 km/h 11.1 km/h 37% 0 mm
15:06 17.6 °C 2.3 °C 1019.9 hPa SSW 14.8 km/h 14.8 km/h 36% 0 mm
15:11 17.7 °C 2.4 °C 1019.9 hPa SSW 7.4 km/h 7.4 km/h 36% 0 mm
15:16 17.8 °C 2.9 °C 1019.9 hPa South 9.7 km/h 9.7 km/h 37% 0 mm
15:21 17.6 °C 2.3 °C 1019.9 hPa South 25.9 km/h 25.9 km/h 36% 0 mm
15:26 17.6 °C 2.7 °C 1019.9 hPa South 5.6 km/h 5.6 km/h 37% 0 mm
15:31 17.8 °C 2.2 °C 1019.9 hPa South 14.8 km/h 14.8 km/h 35% 0 mm
15:36 17.6 °C 1.9 °C 1019.5 hPa South 18.5 km/h 18.5 km/h 35% 0 mm
15:41 17.4 °C 2.2 °C 1019.5 hPa South 11.1 km/h 12.9 km/h 36% 0 mm
15:47 17.3 °C 1.7 °C 1019.5 hPa South 18.5 km/h 18.5 km/h 35% 0 mm
15:52 17.4 °C 1.8 °C 1019.5 hPa SSW 16.7 km/h 16.7 km/h 35% 0 mm
15:57 17.3 °C 1.7 °C 1019.5 hPa South 18.5 km/h 18.5 km/h 35% 0 mm
16:02 17.5 °C 1.8 °C 1019.5 hPa South 9.3 km/h 9.3 km/h 35% 0 mm
16:07 17.5 °C 1.4 °C 1019.2 hPa South 24.1 km/h 24.1 km/h 34% 0 mm
16:12 17.3 °C 1.7 °C 1019.2 hPa South 24.1 km/h 24.1 km/h 35% 0 mm
16:17 17.1 °C 1.5 °C 1019.5 hPa South 9.3 km/h 9.3 km/h 35% 0 mm
16:22 17.2 °C 1.2 °C 1019.2 hPa South 11.1 km/h 11.1 km/h 34% 0 mm
16:27 17.3 °C 1.3 °C 1019.2 hPa South 29 km/h 29 km/h 34% 0 mm
16:32 17.1 °C 1.1 °C 1019.2 hPa South 16.7 km/h 16.7 km/h 34% 0 mm
16:37 17.1 °C 1.8 °C 1019.2 hPa SSE 16.7 km/h 16.7 km/h 36% 0 mm
16:42 17.1 °C 1.8 °C 1019.2 hPa South 18.5 km/h 18.5 km/h 36% 0 mm
16:47 17.2 °C 1.6 °C 1018.8 hPa SW 18.5 km/h 18.5 km/h 35% 0 mm
16:52 17.3 °C 1.7 °C 1018.8 hPa SSW 18.5 km/h 18.5 km/h 35% 0 mm
16:57 17.2 °C 1.6 °C 1018.8 hPa South 18.5 km/h 18.5 km/h 35% 0 mm
17:02 17 °C 1.4 °C 1018.8 hPa South 11.1 km/h 11.1 km/h 35% 0 mm
17:07 16.9 °C 1.4 °C 1018.8 hPa South 11.1 km/h 11.1 km/h 35% 0 mm
17:12 16.9 °C 1.3 °C 1018.8 hPa South 18.5 km/h 18.5 km/h 35% 0 mm
17:17 16.9 °C 1.3 °C 1019.2 hPa South 14.8 km/h 14.8 km/h 35% 0 mm
17:22 16.8 °C 1.2 °C 1019.2 hPa South 11.3 km/h 11.3 km/h 35% 0 mm
17:27 16.7 °C 1.5 °C 1019.2 hPa South 7.4 km/h 7.4 km/h 36% 0 mm
17:32 16.6 °C 1.4 °C 1018.8 hPa South 18.5 km/h 18.5 km/h 36% 0 mm
17:38 16.6 °C 1.4 °C 1019.2 hPa South 16.7 km/h 16.7 km/h 36% 0 mm
17:43 16.4 °C 0.9 °C 1019.2 hPa South 18.5 km/h 18.5 km/h 35% 0 mm
17:48 16.3 °C 0.8 °C 1019.2 hPa South 16.7 km/h 16.7 km/h 35% 0 mm
17:53 16.2 °C 1.1 °C 1019.2 hPa South 20.4 km/h 20.4 km/h 36% 0 mm
17:58 16.1 °C 1 °C 1019.2 hPa South 14.8 km/h 14.8 km/h 36% 0 mm
18:03 16 °C 0.9 °C 1019.2 hPa South 5.6 km/h 5.6 km/h 36% 0 mm
18:08 15.9 °C 1.2 °C 1019.2 hPa South 16.7 km/h 16.7 km/h 37% 0 mm
18:13 15.8 °C 1.2 °C 1019.2 hPa South 9.3 km/h 9.3 km/h 37% 0 mm
18:18 15.7 °C 1.1 °C 1019.2 hPa South 5.6 km/h 5.6 km/h 37% 0 mm
18:23 15.5 °C 1.2 °C 1019.2 hPa South 5.6 km/h 5.6 km/h 38% 0 mm
18:28 15.3 °C 1.1 °C 1019.2 hPa South 7.4 km/h 7.4 km/h 38% 0 mm
18:33 15.2 °C 1 °C 1019.2 hPa South 9.3 km/h 9.3 km/h 38% 0 mm
18:38 15 °C 1.2 °C 1019.2 hPa South 7.4 km/h 7.4 km/h 39% 0 mm
18:43 15 °C 1.2 °C 1019.2 hPa South 11.1 km/h 11.1 km/h 39% 0 mm
18:48 15 °C 1.5 °C 1019.2 hPa South 5.6 km/h 5.6 km/h 40% 0 mm
18:53 14.9 °C 1.4 °C 1018.8 hPa South 5.6 km/h 5.6 km/h 40% 0 mm
18:58 14.7 °C 1.2 °C 1018.8 hPa South 5.6 km/h 5.6 km/h 40% 0 mm
19:03 14.7 °C 1.2 °C 1018.8 hPa South 3.7 km/h 3.7 km/h 40% 0 mm
19:08 14.6 °C 1.1 °C 1018.8 hPa South 11.1 km/h 11.1 km/h 40% 0 mm
19:13 14.6 °C 1.4 °C 1018.8 hPa South 7.4 km/h 7.4 km/h 41% 0 mm
19:18 14.5 °C 1.4 °C 1018.8 hPa South 16.7 km/h 16.7 km/h 41% 0 mm
19:23 14.4 °C 1.7 °C 1018.8 hPa South 5.6 km/h 5.6 km/h 42% 0 mm
19:28 14.3 °C 1.6 °C 1018.8 hPa South 5.6 km/h 5.6 km/h 42% 0 mm
19:33 14.3 °C 1.5 °C 1019.2 hPa South 7.4 km/h 7.4 km/h 42% 0 mm
19:38 14.2 °C 1.4 °C 1018.8 hPa South 5.6 km/h 5.6 km/h 42% 0 mm
19:43 14.1 °C 1.3 °C 1019.2 hPa South 5.6 km/h 5.6 km/h 42% 0 mm
19:48 13.9 °C 1.2 °C 1019.2 hPa South 5.6 km/h 5.6 km/h 42% 0 mm
19:53 13.9 °C 1.5 °C 1019.2 hPa South 9.3 km/h 9.3 km/h 43% 0 mm
19:58 13.7 °C 1.3 °C 1018.5 hPa South 5.6 km/h 5.6 km/h 43% 0 mm
20:03 13.6 °C 1.2 °C 1018.5 hPa South 5.6 km/h 5.6 km/h 43% 0 mm
20:08 13.4 °C 1.1 °C 1018.5 hPa South 5.6 km/h 5.6 km/h 43% 0 mm
20:13 13.4 °C 1.1 °C 1018.5 hPa South 5.6 km/h 5.6 km/h 43% 0 mm
20:18 13.3 °C 1 °C 1018.5 hPa South 5.6 km/h 5.6 km/h 43% 0 mm
20:23 13.3 °C 1.3 °C 1018.5 hPa South 5.6 km/h 5.6 km/h 44% 0 mm
20:28 13.2 °C 1.2 °C 1018.5 hPa South 7.4 km/h 7.4 km/h 44% 0 mm
20:33 13.1 °C 1.1 °C 1018.5 hPa South 5.6 km/h 5.6 km/h 44% 0 mm
20:38 13.1 °C 1.1 °C 1018.2 hPa South 7.4 km/h 7.4 km/h 44% 0 mm
20:43 13 °C 1 °C 1018.2 hPa South 3.7 km/h 3.7 km/h 44% 0 mm
20:48 12.8 °C 0.9 °C 1018.2 hPa Calm   0.3 km/h 44% 0 mm
20:53 12.7 °C 0.8 °C 1018.2 hPa South 3.2 km/h 3.2 km/h 44% 0 mm
20:58 12.6 °C 1 °C 1018.2 hPa South 1.9 km/h 1.9 km/h 45% 0 mm
21:03 12.6 °C 0.9 °C 1018.2 hPa South 1.9 km/h 1.9 km/h 45% 0 mm
21:08 12.4 °C 0.8 °C 1018.5 hPa South 5.6 km/h 5.6 km/h 45% 0 mm
21:13 12.4 °C 0.8 °C 1018.5 hPa South 3.7 km/h 3.7 km/h 45% 0 mm
21:18 12.3 °C 0.7 °C 1018.5 hPa South 5.6 km/h 5.6 km/h 45% 0 mm
21:23 12.2 °C 0.9 °C 1018.5 hPa South 3.7 km/h 3.7 km/h 46% 0 mm
21:28 12.2 °C 0.9 °C 1018.5 hPa South 5.6 km/h 5.6 km/h 46% 0 mm
21:34 12.1 °C 0.8 °C 1018.5 hPa South 5.6 km/h 5.6 km/h 46% 0 mm
21:39 11.9 °C 0.9 °C 1018.5 hPa South 1.9 km/h 1.9 km/h 47% 0 mm
21:44 11.8 °C 0.9 °C 1018.5 hPa South 3.7 km/h 3.7 km/h 47% 0 mm
21:49 11.8 °C 0.8 °C 1018.5 hPa South 3.7 km/h 3.7 km/h 47% 0 mm
21:54 11.8 °C 0.8 °C 1018.5 hPa South 5.6 km/h 5.6 km/h 47% 0 mm
21:59 11.8 °C 0.8 °C 1018.5 hPa South 7.4 km/h 7.4 km/h 47% 0 mm
22:04 11.8 °C 0.8 °C 1018.5 hPa South 5.6 km/h 5.6 km/h 47% 0 mm
22:09 11.7 °C 0.7 °C 1018.5 hPa South 3.7 km/h 3.7 km/h 47% 0 mm
22:14 11.6 °C 0.6 °C 1018.5 hPa South 3.7 km/h 3.7 km/h 47% 0 mm
22:19 11.5 °C 0.6 °C 1018.5 hPa South 1.9 km/h 1.9 km/h 47% 0 mm
22:24 11.4 °C 0.5 °C 1018.5 hPa South 1.9 km/h 1.9 km/h 47% 0 mm
22:29 11.4 °C 0.5 °C 1018.5 hPa South 5.6 km/h 5.6 km/h 47% 0 mm
22:34 11.5 °C 0.6 °C 1018.5 hPa South 9.3 km/h 9.3 km/h 47% 0 mm
22:39 11.6 °C 0.6 °C 1018.5 hPa South 5.6 km/h 5.6 km/h 47% 0 mm
22:44 11.7 °C 0.4 °C 1018.5 hPa South 9.3 km/h 9.3 km/h 46% 0 mm
22:49 11.8 °C 0.3 °C 1018.5 hPa South 11.1 km/h 11.1 km/h 45% 0 mm
22:54 11.9 °C 0.4 °C 1018.2 hPa South 7.4 km/h 7.4 km/h 45% 0 mm
22:59 12 °C 0.1 °C 1018.2 hPa South 11.1 km/h 11.1 km/h 44% 0 mm
23:00 12.1 °C 0.2 °C 1018.2 hPa South 7.4 km/h 7.4 km/h 44% 0 mm
23:01 12.1 °C 0.2 °C 1018.2 hPa South 8 km/h 8 km/h 44% 0 mm
23:06 12.2 °C -0.1 °C 1018.2 hPa South 14.8 km/h 14.8 km/h 43% 0 mm
23:11 12.3 °C 0.1 °C 1018.2 hPa South 18.5 km/h 18.5 km/h 43% 0 mm
23:16 12.3 °C 0.1 °C 1018.2 hPa South 14.8 km/h 14.8 km/h 43% 0 mm
23:21 12.3 °C -0.3 °C 1018.2 hPa South 16.7 km/h 16.7 km/h 42% 0 mm
23:26 12.3 °C -0.3 °C 1017.8 hPa South 16.7 km/h 16.7 km/h 42% 0 mm
23:31 12.2 °C -0.3 °C 1017.8 hPa South 18.5 km/h 18.5 km/h 42% 0 mm
23:37 12.2 °C -0.1 °C 1017.8 hPa South 11.1 km/h 11.1 km/h 43% 0 mm
23:42 12.1 °C -0.1 °C 1017.8 hPa South 14.8 km/h 14.8 km/h 43% 0 mm
23:47 12.1 °C -0.2 °C 1017.8 hPa South 14.8 km/h 14.8 km/h 43% 0 mm
23:52 11.9 °C -0.3 °C 1017.8 hPa South 11.1 km/h 11.1 km/h 43% 0 mm
23:57 11.8 °C -0.3 °C 1017.8 hPa South 11.1 km/h 11.1 km/h 43% 0 mm
Live Lenexa Weather
Compliments of Weather Underground